x

Newport, Or (nwpo3) Weather Station

9:00am - Thu 23rd Feb 2017 All times are PST. -8 hours from GMT.

  • Wind
    5mph, 6mph gusts
  • Air Temp 35°f
  • Sea Pressure 1025.8mb
  • Newport, Or
  • Newport, Or

More Historic Weather Station data

Upgrade to MSW Pro to gain access to the past 30 days of data for over 8000 Wavebouys and Weather Stations around the globe.

Join Pro

Comparision Forecast

View Surf forecast
   
Thu 02/23 9:00am 5 6 mph 1025.8mb 35f
8:00am 5 7 mph 1025.7mb 32f
7:00am 7 8 mph 1025.2mb 32f
6:00am 6 7 mph 1025mb 32f
5:00am 7 8 mph 1024.7mb 32f
4:00am 7 8 mph 1024.3mb 33f
3:00am 5
mph
1024.4mb 33f
2:00am 6 7 mph 1024.5mb 33f
Wed 02/22 2:00am 7 8 mph 1023mb 39f
1:00am 2
mph
1023.1mb 41f
12:00am 6
mph
1022.9mb 41f
Tue 02/21 11:00pm 5 6 mph 1022.5mb 42f
10:00pm 5 6 mph 1022.6mb 43f
9:00pm 10
mph
1022.2mb 47f
8:00pm 11 14 mph 1021.7mb 47f
7:00pm 13 15 mph 1021.4mb 48f
6:00pm 15 17 mph 1020.7mb 48f
5:00pm 13 14 mph 1020mb 48f
4:00pm 14 16 mph 1019.3mb 48f
3:00pm 15 18 mph 1018.5mb 48f
2:00pm 16 17 mph 1017.8mb 48f
1:00pm 16 20 mph 1016.9mb 48f
12:00pm 14 15 mph 1016.4mb 47f
11:00am 3 5 mph 1015.4mb 45f
10:00am 8 10 mph 1014.1mb 46f
9:00am 7 9 mph 1012.5mb 46f
8:00am 8 9 mph 1011mb 47f
7:00am 7 8 mph 1009.2mb 47f
6:00am 8 9 mph 1007.5mb 47f
5:00am  -  1 mph 1006.1mb 45f
4:00am 2
mph
1005.1mb 45f
3:00am 2
mph
1004.7mb 46f
2:00am 1 2 mph 1004.6mb 46f
1:00am 2 3 mph 1004.2mb 46f
12:00am  -  1 mph 1004.3mb 46f
Mon 02/20 11:00pm 3 5 mph 1003.8mb 46f
10:00pm 5
mph
1004.1mb 46f
9:00pm 6 7 mph 1004.4mb 46f
8:00pm 3 5 mph 1005mb 46f
7:00pm 5
mph
1005.1mb 46f
6:00pm  -  1 mph 1005.5mb 47f
5:00pm 10 13 mph 1005.8mb 48f
4:00pm 13 15 mph 1006mb 49f
3:00pm 16 18 mph 1005.9mb 49f
2:00pm 23 26 mph 1005.6mb 48f
1:00pm 23 26 mph 1005.6mb 48f
12:00pm 28 31 mph 1005.6mb 48f
11:00am 25 29 mph 1004.9mb 48f
10:00am 21 23 mph 1003mb 46f
9:00am 9 11 mph 999.1mb 45f
8:00am 9 10 mph 995.6mb 44f
7:00am 9 11 mph 994.4mb 43f
6:00am 11 15 mph 995.1mb 43f
5:00am 10 11 mph 995.7mb 43f
4:00am 8 10 mph 997mb 43f
3:00am 7 9 mph 998.2mb 44f
2:00am 5 6 mph 999.8mb 44f
1:00am 3 6 mph 1000.7mb 44f
12:00am 3
mph
1001.3mb 44f
Sun 02/19 11:00pm 9 13 mph 1002.4mb 45f
10:00pm 8 10 mph 1002.6mb 46f
9:00pm 6 8 mph 1002.2mb 46f
8:00pm 7 9 mph 1002.2mb 47f
7:00pm 10 11 mph 1002.5mb 48f